Esther, Canada
Current Conditions -  °F | °C
As of 2:00 AM on Thursday 23 Oct 2014 (Local Time) from CYKY Reporting Station
Scattered Clouds Scattered Clouds  
Wind Chill: 37°   Ceiling: Unl
Heat Index: 43°   Visibility: 15mi
Dew Point: 36°   Wind: 10mph
Humidity: 76%   Direction: 170°S
Pressure: 29.66"   Gusts: NA
Location:  51.68°N, 110.26°W
Report Text: CYKY 230800Z 17009KT 15SM SCT250 06/02 A2966 RMK CI3 SLP053
Loading
Personal Weather Stations






























Interactive Weather Map
Tropical Storm Tracking
New forecast layout! Learn more

10-Day Weather Forecast

Advertisements
Track Severe Weather on mobile